Time;durP1;ratioP1;P1;durP2;ratioP2;P2;SDS_P1;SDS_P2;PMS_P1;PMS_P2;Temp;Humidity;BMP_temperature;BMP_pressure;BME280_temperature;BME280_humidity;BME280_pressure;Samples;Min_cycle;Max_cycle;Signal;HPM_P1;HPM_P2
2022/03/04 00:00:49;;;;;;;18.10;14.23;;;;;;;9.30;58.22;100860.94;5032592;28;20437;-81
2022/03/04 00:03:16;;;;;;;18.58;14.32;;;;;;;9.25;58.53;100863.94;5032528;28;20119;-80
2022/03/04 00:05:43;;;;;;;20.73;15.77;;;;;;;9.23;58.10;100859.72;5032555;28;20052;-82
2022/03/04 00:08:10;;;;;;;21.10;15.75;;;;;;;9.18;57.74;100866.22;5032063;28;20085;-80
2022/03/04 00:10:38;;;;;;;23.33;17.80;;;;;;;9.40;56.43;100901.63;5050631;28;20103;-81
2022/03/04 00:13:05;;;;;;;24.05;19.95;;;;;;;8.83;55.36;100794.84;5033382;28;20057;-82
2022/03/04 00:15:32;;;;;;;24.75;18.67;;;;;;;9.26;55.11;100875.38;5021719;28;20258;-81
2022/03/04 00:17:58;;;;;;;24.83;18.83;;;;;;;9.50;55.15;100893.78;5032992;28;20543;-80
2022/03/04 00:20:25;;;;;;;26.27;20.17;;;;;;;9.37;54.96;100878.03;5013530;28;20133;-81
2022/03/04 00:22:52;;;;;;;28.45;20.20;;;;;;;9.13;54.90;100855.16;5012753;28;20107;-81
2022/03/04 00:25:19;;;;;;;23.58;19.60;;;;;;;9.17;54.62;100885.75;5011756;28;20338;-81
2022/03/04 00:27:46;;;;;;;27.92;21.30;;;;;;;9.30;54.38;100903.31;5011858;28;20053;-80
2022/03/04 00:30:13;;;;;;;27.95;24.45;;;;;;;9.08;54.01;100888.22;5012104;28;20081;-81
2022/03/04 00:32:40;;;;;;;31.38;23.90;;;;;;;8.92;54.26;100894.72;5011675;28;20076;-82
2022/03/04 00:35:08;;;;;;;31.90;24.40;;;;;;;8.60;54.35;100833.69;5012048;28;20049;-81
2022/03/04 00:37:35;;;;;;;35.25;27.48;;;;;;;8.74;54.10;100875.00;5029395;28;20077;-81
2022/03/04 00:40:03;;;;;;;32.42;27.38;;;;;;;8.74;54.34;100897.00;5012206;28;20487;-82
2022/03/04 00:42:30;;;;;;;35.42;26.77;;;;;;;8.18;54.62;100835.97;5011909;28;20578;-80
2022/03/04 00:44:56;;;;;;;39.05;28.60;;;;;;;8.34;54.81;100862.09;5011938;28;20114;-81
2022/03/04 00:47:24;;;;;;;33.63;28.73;;;;;;;7.95;54.52;100803.31;5012335;28;20136;-81
2022/03/04 00:49:51;;;;;;;34.28;28.17;;;;;;;8.43;55.29;100889.72;5011755;28;20479;-81
2022/03/04 00:52:17;;;;;;;37.63;30.88;;;;;;;8.23;55.80;100907.00;5011947;28;20058;-82
2022/03/04 00:54:44;;;;;;;38.40;31.08;;;;;;;8.21;55.79;100893.09;5011670;28;20052;-81
2022/03/04 00:57:11;;;;;;;39.85;31.52;;;;;;;8.24;55.47;100896.34;5011860;28;20137;-82
2022/03/04 00:59:37;;;;;;;38.97;30.05;;;;;;;8.26;56.25;100914.75;5011639;28;20057;-82
2022/03/04 01:02:04;;;;;;;37.28;30.88;;;;;;;7.82;56.67;100858.91;5011009;28;20442;-82
2022/03/04 01:04:31;;;;;;;33.88;28.85;;;;;;;8.14;56.58;100909.41;5011512;28;20057;-82
2022/03/04 01:06:58;;;;;;;36.00;29.67;;;;;;;8.02;56.44;100883.03;5010723;28;20462;-81
2022/03/04 01:09:25;;;;;;;35.95;28.35;;;;;;;8.22;56.16;100900.06;5011604;28;20053;-81
2022/03/04 01:11:51;;;;;;;39.00;29.20;;;;;;;8.33;56.11;100893.00;5011298;28;20123;-81
2022/03/04 01:14:18;;;;;;;32.58;27.23;;;;;;;8.19;56.63;100858.81;5012938;28;20049;-81
2022/03/04 01:16:45;;;;;;;33.00;25.83;;;;;;;8.20;56.31;100844.63;5048560;28;20088;-83
2022/03/04 01:19:11;;;;;;;37.97;25.23;;;;;;;8.45;56.63;100877.22;5030756;28;20380;-82
2022/03/04 01:21:38;;;;;;;28.25;24.63;;;;;;;8.50;56.18;100883.00;5030018;28;20049;-82
2022/03/04 01:24:05;;;;;;;34.80;25.20;;;;;;;8.49;56.64;100897.16;5030044;28;20131;-82
2022/03/04 01:26:32;;;;;;;31.65;27.00;;;;;;;8.80;55.23;100926.63;5030976;28;20048;-81
2022/03/04 01:28:59;;;;;;;34.95;29.45;;;;;;;7.77;55.63;100800.25;5048489;28;20051;-82
2022/03/04 01:31:26;;;;;;;34.35;29.02;;;;;;;8.10;56.38;100885.94;5030755;28;20056;-82
2022/03/04 01:33:52;;;;;;;35.85;28.40;;;;;;;8.27;55.98;100914.59;5029777;28;20059;-81
2022/03/04 01:36:19;;;;;;;37.15;29.83;;;;;;;7.63;55.45;100813.63;5028778;28;20144;-81
2022/03/04 01:38:46;;;;;;;38.08;30.55;;;;;;;8.22;55.58;100935.28;5029516;28;20136;-80
2022/03/04 01:41:12;;;;;;;35.63;30.42;;;;;;;8.16;55.16;100922.50;5030341;28;20055;-80
2022/03/04 01:43:39;;;;;;;39.90;30.20;;;;;;;7.95;55.20;100903.78;5030708;28;20045;-81
2022/03/04 01:46:15;;;;;;;35.05;28.48;;;;;;;7.70;54.56;100857.16;5030461;28;20049;-80
2022/03/04 01:48:43;;;;;;;35.72;29.23;;;;;;;8.05;54.63;100925.09;5030007;28;20077;-80
2022/03/04 01:51:11;;;;;;;32.22;27.05;;;;;;;8.03;54.20;100937.56;5029853;28;20393;-80
2022/03/04 01:53:39;;;;;;;34.97;28.10;;;;;;;7.68;53.75;100873.09;5030540;28;20049;-80
2022/03/04 01:56:05;;;;;;;34.28;27.65;;;;;;;8.12;53.49;100942.19;5030320;28;20139;-80
2022/03/04 01:58:32;;;;;;;37.53;28.90;;;;;;;8.13;53.31;100954.44;5030610;28;20088;-80
2022/03/04 02:01:00;;;;;;;33.17;29.10;;;;;;;7.77;53.36;100916.53;5029310;28;20079;-80
2022/03/04 02:03:27;;;;;;;38.63;30.00;;;;;;;7.93;53.07;100943.53;5028636;28;20053;-81
2022/03/04 02:05:54;;;;;;;31.00;26.95;;;;;;;7.57;53.03;100893.31;5027176;28;20045;-80
2022/03/04 02:08:22;;;;;;;33.38;28.63;;;;;;;7.27;53.10;100857.59;5027153;28;20045;-80
2022/03/04 02:10:48;;;;;;;39.70;30.38;;;;;;;7.77;53.57;100942.09;5027333;28;20076;-80
2022/03/04 02:13:16;;;;;;;35.83;29.27;;;;;;;7.13;53.38;100831.31;5028307;28;20049;-80
2022/03/04 02:15:44;;;;;;;37.75;28.63;;;;;;;7.57;53.90;100919.75;5015863;28;20122;-81
2022/03/04 02:18:16;;;;;;;40.05;28.50;;;;;;;7.66;53.82;100929.66;5017983;28;20112;-81
2022/03/04 02:20:46;;;;;;;36.60;30.30;;;;;;;7.63;53.53;100911.41;5018770;28;20113;-80
2022/03/04 02:23:13;;;;;;;38.78;30.23;;;;;;;7.70;53.81;100931.16;5007805;28;20442;-80
2022/03/04 02:25:41;;;;;;;35.53;29.45;;;;;;;7.52;53.80;100909.50;5024855;28;20112;-81
2022/03/04 02:28:08;;;;;;;34.92;29.05;;;;;;;7.16;54.01;100853.06;5007267;28;20291;-81
2022/03/04 02:30:36;;;;;;;33.70;28.27;;;;;;;7.19;54.13;100875.78;5025555;28;20049;-81
2022/03/04 02:33:05;;;;;;;39.03;30.05;;;;;;;7.13;53.81;100841.88;4992605;28;20048;-80
2022/03/04 02:35:33;;;;;;;37.88;29.88;;;;;;;7.01;54.10;100828.56;5008777;28;20083;-81
2022/03/04 02:38:00;;;;;;;37.83;29.95;;;;;;;7.66;54.09;100929.66;5008442;28;20056;-80
2022/03/04 02:40:27;;;;;;;36.30;30.10;;;;;;;7.80;54.38;100932.16;5007810;28;20060;-80
2022/03/04 02:42:54;;;;;;;34.28;28.80;;;;;;;7.81;53.71;100904.75;5008306;28;20415;-82
2022/03/04 02:45:21;;;;;;;32.72;27.63;;;;;;;7.99;53.81;100925.56;5009423;28;20045;-81
2022/03/04 02:47:48;;;;;;;33.50;28.23;;;;;;;7.71;53.23;100854.38;5016170;28;20343;-82
2022/03/04 02:50:14;;;;;;;38.97;30.65;;;;;;;8.03;53.86;100916.44;5018499;28;20107;-81
2022/03/04 02:52:42;;;;;;;35.20;28.77;;;;;;;7.88;54.18;100913.94;5014982;28;20049;-81
2022/03/04 02:55:11;;;;;;;33.17;28.90;;;;;;;7.57;54.39;100874.81;5012377;28;20081;-81
2022/03/04 02:57:40;;;;;;;34.97;29.73;;;;;;;7.89;54.45;100936.78;5030062;28;20104;-81
2022/03/04 03:00:07;;;;;;;33.17;29.02;;;;;;;7.62;54.73;100901.75;5012443;28;20480;-81
2022/03/04 03:02:34;;;;;;;35.63;28.95;;;;;;;7.85;55.67;100937.97;5012376;28;20045;-81
2022/03/04 03:05:01;;;;;;;36.53;29.40;;;;;;;8.01;55.24;100955.34;5012478;28;20132;-81
2022/03/04 03:07:29;;;;;;;36.35;28.42;;;;;;;7.96;56.17;100942.50;5012442;28;20081;-80
2022/03/04 03:09:56;;;;;;;35.53;29.25;;;;;;;7.91;57.11;100940.19;5012287;28;20136;-79
2022/03/04 03:12:22;;;;;;;35.63;30.42;;;;;;;7.83;57.76;100916.06;5013647;28;20045;-81
2022/03/04 03:14:49;;;;;;;39.47;29.77;;;;;;;7.97;58.75;100946.81;5051381;28;20405;-82
2022/03/04 03:17:15;;;;;;;41.35;29.13;;;;;;;8.05;58.32;100968.25;5057532;28;20045;-81
2022/03/04 03:19:42;;;;;;;36.22;29.88;;;;;;;8.15;57.28;100957.84;5037892;28;20491;-81
2022/03/04 03:22:09;;;;;;;35.63;28.42;;;;;;;8.02;58.35;100935.91;5032842;28;20719;-81
2022/03/04 03:24:35;;;;;;;34.88;28.63;;;;;;;8.03;57.79;100917.25;5031870;28;20072;-81
2022/03/04 03:27:02;;;;;;;35.45;29.70;;;;;;;8.01;59.37;100923.63;5049188;28;20506;-81
2022/03/04 03:29:29;;;;;;;34.15;29.83;;;;;;;8.22;58.53;100953.78;5031807;28;20150;-82
2022/03/04 03:31:55;;;;;;;33.67;28.27;;;;;;;8.15;60.59;100960.47;5031875;28;20295;-81
2022/03/04 03:34:22;;;;;;;37.22;28.00;;;;;;;8.08;60.69;100969.81;5031844;28;20075;-80
2022/03/04 03:36:49;;;;;;;35.67;29.02;;;;;;;8.14;59.56;100972.03;5031575;28;20080;-81
2022/03/04 03:39:15;;;;;;;34.25;29.90;;;;;;;7.86;61.19;100926.44;5031489;28;20076;-80
2022/03/04 03:41:42;;;;;;;36.50;28.63;;;;;;;8.31;59.17;100976.09;5031699;28;20139;-81
2022/03/04 03:44:09;;;;;;;34.60;28.38;;;;;;;8.10;61.16;100957.31;5031209;28;20147;-80
2022/03/04 03:46:35;;;;;;;36.22;29.67;;;;;;;8.18;60.99;100976.16;5031297;28;20471;-81
2022/03/04 03:49:02;;;;;;;36.50;28.83;;;;;;;8.21;61.38;100978.56;5031107;28;20045;-81
2022/03/04 03:51:30;;;;;;;34.75;29.33;;;;;;;8.13;61.68;100986.19;5048601;28;20088;-81
2022/03/04 03:53:57;;;;;;;36.22;28.60;;;;;;;7.70;61.36;100931.16;5031638;28;20045;-81
2022/03/04 03:56:23;;;;;;;32.78;27.15;;;;;;;7.73;60.03;100909.78;5030904;28;20134;-81
2022/03/04 03:58:50;;;;;;;31.95;27.30;;;;;;;8.09;59.05;100959.13;5031147;28;20562;-81
2022/03/04 04:01:16;;;;;;;38.10;29.15;;;;;;;8.08;59.53;100972.44;5031002;28;20051;-81
2022/03/04 04:03:43;;;;;;;33.28;28.05;;;;;;;8.09;61.49;100990.88;5048401;28;20068;-82
2022/03/04 04:06:10;;;;;;;35.80;29.50;;;;;;;7.42;62.16;100882.91;5030937;28;20137;-83
2022/03/04 04:08:36;;;;;;;33.80;28.38;;;;;;;8.07;63.63;101008.63;5030863;28;20037;-82
2022/03/04 04:11:04;;;;;;;34.63;29.23;;;;;;;7.98;61.96;100984.66;5030856;28;20390;-82
2022/03/04 04:13:30;;;;;;;33.63;29.95;;;;;;;8.03;63.46;100996.59;5031120;28;20136;-81
2022/03/04 04:15:57;;;;;;;34.05;30.23;;;;;;;7.90;63.37;100986.06;5015206;28;20049;-82
2022/03/04 04:18:24;;;;;;;35.58;30.27;;;;;;;7.76;64.57;100970.34;5028580;28;20148;-82
2022/03/04 04:20:50;;;;;;;36.53;31.15;;;;;;;6.89;63.32;100834.72;5011880;28;20050;-81
2022/03/04 04:23:17;;;;;;;37.58;30.48;;;;;;;7.84;63.71;100997.06;5015146;28;20049;-81
2022/03/04 04:25:44;;;;;;;41.83;31.17;;;;;;;7.53;65.10;100955.28;5031721;28;20355;-81
2022/03/04 04:28:10;;;;;;;34.90;29.63;;;;;;;7.99;63.79;101010.16;5011459;28;20087;-81
2022/03/04 04:30:37;;;;;;;38.08;28.73;;;;;;;7.56;64.03;100944.50;5028493;28;20388;-80
2022/03/04 04:33:03;;;;;;;34.40;30.50;;;;;;;7.38;64.86;100928.13;5010538;28;20055;-80
2022/03/04 04:35:30;;;;;;;39.05;32.08;;;;;;;7.79;65.73;100982.47;5028084;28;20144;-80
2022/03/04 04:37:57;;;;;;;33.75;29.80;;;;;;;7.76;66.28;100972.97;5028484;28;20052;-82
2022/03/04 04:40:24;;;;;;;36.17;29.13;;;;;;;8.07;66.16;101003.34;5028234;28;20057;-83
2022/03/04 04:42:50;;;;;;;44.05;31.63;;;;;;;7.58;66.81;100918.81;5010584;28;20055;-82
2022/03/04 04:45:17;;;;;;;37.95;31.80;;;;;;;8.10;68.19;100999.63;5010793;28;20120;-81
2022/03/04 04:47:43;;;;;;;33.30;29.55;;;;;;;8.25;65.62;100993.25;5010360;28;20045;-81
2022/03/04 04:50:10;;;;;;;36.22;29.75;;;;;;;8.35;66.13;101004.84;5010585;28;20095;-81
2022/03/04 04:52:37;;;;;;;32.80;28.27;;;;;;;8.18;64.93;100965.56;5010330;28;20075;-81
2022/03/04 04:55:04;;;;;;;32.58;28.27;;;;;;;8.46;64.48;100998.78;5010049;28;20079;-81
2022/03/04 04:57:31;;;;;;;31.90;27.80;;;;;;;8.08;68.27;100961.88;5010189;28;20132;-81
2022/03/04 04:59:57;;;;;;;33.03;28.65;;;;;;;8.06;68.91;100979.69;5010261;28;20495;-80
2022/03/04 05:02:25;;;;;;;33.58;29.67;;;;;;;8.11;70.10;100990.78;5010115;28;20057;-80
2022/03/04 05:04:52;;;;;;;34.88;29.13;;;;;;;7.63;69.40;100919.31;5010273;28;20060;-80
2022/03/04 05:07:18;;;;;;;33.25;27.80;;;;;;;7.68;69.75;100931.25;5010195;28;20056;-82
2022/03/04 05:09:45;;;;;;;35.47;26.75;;;;;;;8.06;69.71;100995.53;5027276;28;20048;-82
2022/03/04 05:12:11;;;;;;;32.42;26.60;;;;;;;7.82;70.12;100946.13;5009214;28;20140;-81
2022/03/04 05:14:38;;;;;;;31.90;27.42;;;;;;;7.56;70.20;100904.84;5014693;28;20049;-82
2022/03/04 05:17:05;;;;;;;31.13;26.05;;;;;;;8.10;68.98;100978.47;5029508;28;20651;-81
2022/03/04 05:19:32;;;;;;;30.20;25.50;;;;;;;8.01;69.18;100968.56;5029607;28;20155;-82
2022/03/04 05:21:58;;;;;;;29.13;26.10;;;;;;;8.21;69.71;100993.59;5029564;28;20053;-82
2022/03/04 05:24:25;;;;;;;28.88;25.52;;;;;;;8.33;67.26;100990.88;5029604;28;20055;-82
2022/03/04 05:26:52;;;;;;;32.67;27.17;;;;;;;8.14;67.23;100949.06;5029271;28;20055;-82
2022/03/04 05:29:18;;;;;;;31.75;26.05;;;;;;;8.26;67.75;100976.41;5029312;28;20416;-82
2022/03/04 05:31:45;;;;;;;30.75;26.48;;;;;;;8.04;68.33;100944.56;5029631;28;20067;-82
2022/03/04 05:34:12;;;;;;;31.10;26.70;;;;;;;8.33;68.17;100996.19;5029481;28;20131;-81
2022/03/04 05:36:39;;;;;;;29.88;26.45;;;;;;;8.19;67.00;100969.88;5029160;28;20148;-81
2022/03/04 05:39:06;;;;;;;30.55;26.10;;;;;;;8.40;67.04;100974.56;5028895;28;20059;-80
2022/03/04 05:41:33;;;;;;;34.08;26.88;;;;;;;8.46;66.74;100995.31;5028985;28;20109;-82
2022/03/04 05:43:59;;;;;;;34.15;27.73;;;;;;;8.41;67.72;100998.28;5029193;28;20487;-81
2022/03/04 05:46:26;;;;;;;27.65;24.52;;;;;;;8.46;67.49;100997.94;5029118;28;20072;-82
2022/03/04 05:48:53;;;;;;;29.27;26.15;;;;;;;8.19;66.70;100956.66;5029159;28;20552;-81
2022/03/04 05:51:20;;;;;;;32.20;27.58;;;;;;;8.19;67.24;100964.59;5030620;28;20152;-82
2022/03/04 05:53:49;;;;;;;30.70;27.05;;;;;;;8.34;65.67;100978.50;5029969;28;20577;-81
2022/03/04 05:56:16;;;;;;;29.23;26.05;;;;;;;8.41;65.85;101008.03;5029701;28;20204;-81
2022/03/04 05:58:43;;;;;;;29.85;26.38;;;;;;;8.22;65.95;100984.69;5028881;28;20116;-82
2022/03/04 06:01:09;;;;;;;34.15;29.15;;;;;;;8.29;65.74;101022.97;5046413;28;20426;-81
2022/03/04 06:03:36;;;;;;;32.90;28.55;;;;;;;8.24;67.39;101031.22;5028613;28;20065;-82
2022/03/04 06:06:04;;;;;;;34.83;30.15;;;;;;;8.25;65.72;101026.78;5028846;28;20140;-80
2022/03/04 06:08:31;;;;;;;41.10;32.03;;;;;;;8.19;65.96;101036.00;5028626;28;20044;-82
2022/03/04 06:10:59;;;;;;;34.10;29.13;;;;;;;8.02;65.78;101004.66;5028784;28;20247;-82
2022/03/04 06:13:25;;;;;;;36.03;29.67;;;;;;;7.95;65.97;101008.69;5028461;28;20095;-82
2022/03/04 06:15:52;;;;;;;37.40;30.73;;;;;;;7.91;65.83;101008.91;5031183;28;20045;-82
2022/03/04 06:18:19;;;;;;;36.70;30.77;;;;;;;7.87;66.04;101011.88;5008692;28;20084;-80
2022/03/04 06:20:55;;;;;;;35.28;30.88;;;;;;;7.90;66.74;101033.63;5009830;28;20064;-82
2022/03/04 06:23:22;;;;;;;34.03;28.42;;;;;;;7.55;66.34;100974.50;5008395;28;20060;-81
2022/03/04 06:25:50;;;;;;;34.08;30.08;;;;;;;7.70;66.16;101023.63;5009516;28;20142;-81
2022/03/04 06:28:17;;;;;;;42.08;30.88;;;;;;;7.83;66.58;101042.94;5028070;28;20585;-81
2022/03/04 06:30:44;;;;;;;36.63;30.25;;;;;;;7.73;66.06;101035.78;5010139;28;20068;-82
2022/03/04 06:36:00;;;;;;;37.35;30.95;;;;;;;7.73;66.46;101051.66;5025729;28;20128;-82
2022/03/04 06:38:26;;;;;;;36.70;30.60;;;;;;;7.59;66.03;101057.88;5004203;28;20140;-81
2022/03/04 06:40:53;;;;;;;34.08;30.40;;;;;;;7.56;66.58;101055.47;5029019;28;20140;-84
2022/03/04 06:43:20;;;;;;;33.45;29.85;;;;;;;7.10;66.85;100984.66;5029640;28;20049;-83
2022/03/04 06:45:47;;;;;;;35.50;30.77;;;;;;;7.30;66.69;101007.88;5039332;28;20080;-82
2022/03/04 06:48:18;;;;;;;39.58;30.98;;;;;;;7.45;66.51;101033.28;5007382;28;20077;-83
2022/03/04 06:50:45;;;;;;;37.35;30.40;;;;;;;7.58;66.73;101053.56;5024362;28;20495;-82
2022/03/04 06:53:12;;;;;;;38.15;31.63;;;;;;;7.35;67.24;101032.19;5011470;28;20050;-82
2022/03/04 06:55:38;;;;;;;37.72;32.10;;;;;;;6.98;67.14;100976.63;5009449;28;20065;-81
2022/03/04 06:58:05;;;;;;;38.70;31.88;;;;;;;7.26;67.16;101011.72;5026818;28;20463;-82
2022/03/04 07:00:32;;;;;;;38.00;31.80;;;;;;;7.11;67.50;100976.63;5008454;28;20058;-82
2022/03/04 07:02:59;;;;;;;37.50;32.75;;;;;;;7.63;66.86;101054.09;5008772;28;20062;-82
2022/03/04 07:05:26;;;;;;;39.67;33.40;;;;;;;7.68;67.52;101065.19;5008980;28;20081;-85
2022/03/04 07:07:54;;;;;;;35.70;31.80;;;;;;;7.51;67.50;101036.44;5027096;28;20050;-84
2022/03/04 07:10:21;;;;;;;44.63;34.03;;;;;;;7.64;67.50;101047.84;5009142;28;20049;-85
2022/03/04 07:12:49;;;;;;;39.58;31.60;;;;;;;7.71;66.97;101059.66;5009461;28;20140;-85
2022/03/04 07:15:17;;;;;;;37.22;31.95;;;;;;;7.31;67.35;100988.47;5010833;28;20042;-85
2022/03/04 07:17:45;;;;;;;37.53;31.73;;;;;;;7.58;67.22;101029.78;5011628;28;20096;-86
2022/03/04 07:20:12;;;;;;;41.15;31.42;;;;;;;7.69;67.30;101040.44;5032123;28;20530;-86
2022/03/04 07:22:39;;;;;;;36.30;32.40;;;;;;;7.70;67.02;101035.03;5017468;28;20073;-86
2022/03/04 07:25:08;;;;;;;37.72;32.97;;;;;;;7.82;66.89;101041.28;5018510;28;20048;-85
2022/03/04 07:27:36;;;;;;;40.63;31.60;;;;;;;7.82;66.81;101019.28;5015127;28;20042;-87
2022/03/04 07:30:05;;;;;;;36.83;31.25;;;;;;;8.02;66.48;101058.38;5013342;28;20088;-85
2022/03/04 07:32:32;;;;;;;38.38;32.53;;;;;;;7.27;66.58;100923.59;5011187;28;20192;-83
2022/03/04 07:34:59;;;;;;;36.40;31.90;;;;;;;7.09;66.08;100877.34;5012811;28;20088;-83
2022/03/04 07:37:26;;;;;;;39.13;31.80;;;;;;;7.32;66.86;100916.19;5028647;28;20049;-82
2022/03/04 07:39:53;;;;;;;38.38;32.17;;;;;;;8.15;67.37;101042.47;5011822;28;20170;-83
2022/03/04 07:42:21;;;;;;;36.58;31.33;;;;;;;8.12;66.33;101032.94;5011695;28;20362;-82
2022/03/04 07:44:48;;;;;;;31.98;28.13;;;;;;;8.42;65.00;101054.69;5011255;28;20050;-83
2022/03/04 07:47:15;;;;;;;36.03;27.92;;;;;;;8.53;64.79;101057.41;5011413;28;20049;-82
2022/03/04 07:49:42;;;;;;;31.02;27.75;;;;;;;7.77;63.97;100916.53;5011120;28;20080;-82
2022/03/04 07:52:09;;;;;;;33.10;26.00;;;;;;;8.43;63.52;101003.47;5011013;28;20103;-84
2022/03/04 07:54:36;;;;;;;29.85;25.90;;;;;;;8.30;63.88;100983.19;4995672;28;20064;-81
2022/03/04 07:57:04;;;;;;;32.10;26.90;;;;;;;8.95;62.41;101066.59;5012425;28;20080;-74
2022/03/04 07:59:31;;;;;;;32.33;27.13;;;;;;;8.80;62.05;101043.09;5029154;28;20385;-81
2022/03/04 08:01:58;;;;;;;30.83;26.70;;;;;;;8.52;62.40;100997.50;5010862;28;20148;-81
2022/03/04 08:04:25;;;;;;;34.90;30.50;;;;;;;8.54;63.22;101007.03;5011537;28;20045;-81
2022/03/04 08:06:51;;;;;;;37.08;31.33;;;;;;;8.73;63.31;101035.59;5011572;28;20064;-83
2022/03/04 08:09:18;;;;;;;38.67;30.60;;;;;;;9.06;63.59;101080.88;5028878;28;20145;-82
2022/03/04 08:11:46;;;;;;;34.65;30.50;;;;;;;9.01;63.06;101057.38;5010877;28;20053;-83
2022/03/04 08:14:13;;;;;;;35.65;29.65;;;;;;;9.19;61.76;101071.88;5030187;28;20054;-82
2022/03/04 08:16:40;;;;;;;34.88;29.83;;;;;;;8.63;62.35;100994.06;5030332;28;20056;-82
2022/03/04 08:19:06;;;;;;;33.25;28.25;;;;;;;9.18;62.00;101086.09;5030610;28;20045;-82
2022/03/04 08:21:33;;;;;;;33.10;27.08;;;;;;;9.27;62.29;101084.56;5030921;28;20045;-82
2022/03/04 08:24:00;;;;;;;34.00;27.23;;;;;;;9.05;62.12;101050.03;5030778;28;20049;-81
2022/03/04 08:26:26;;;;;;;29.42;26.33;;;;;;;9.14;61.52;101067.88;5031104;28;20132;-82
2022/03/04 08:28:59;;;;;;;31.77;26.92;;;;;;;9.24;61.85;101084.78;5031726;28;20057;-81
2022/03/04 08:31:26;;;;;;;33.40;26.70;;;;;;;9.41;61.77;101102.03;5031424;28;20052;-82
2022/03/04 08:33:52;;;;;;;32.25;27.27;;;;;;;9.44;61.11;101103.63;5031754;28;20132;-82
2022/03/04 08:36:19;;;;;;;32.42;27.70;;;;;;;9.42;60.77;101114.34;5030750;28;20053;-82
2022/03/04 08:38:47;;;;;;;32.47;27.45;;;;;;;9.45;60.78;101100.84;5030271;28;20052;-82
2022/03/04 08:41:14;;;;;;;34.35;28.60;;;;;;;9.16;61.23;101061.50;5030280;28;20521;-81
2022/03/04 08:43:41;;;;;;;37.03;30.48;;;;;;;9.35;61.97;101078.69;5030519;28;20059;-82
2022/03/04 08:46:12;;;;;;;37.65;29.25;;;;;;;9.39;61.60;101082.75;5029656;28;20110;-81
2022/03/04 08:48:40;;;;;;;33.33;29.23;;;;;;;9.53;62.13;101090.50;5030621;28;20073;-82
2022/03/04 08:51:07;;;;;;;31.45;27.35;;;;;;;9.60;61.38;101107.63;5031039;28;20187;-81
2022/03/04 08:53:34;;;;;;;30.55;27.25;;;;;;;9.66;60.39;101105.47;5032203;28;20136;-81
2022/03/04 08:56:03;;;;;;;31.70;28.25;;;;;;;9.54;60.80;101075.44;5030794;28;20103;-82
2022/03/04 08:58:30;;;;;;;31.55;27.25;;;;;;;9.84;60.41;101110.19;5030194;28;20135;-82
2022/03/04 09:00:58;;;;;;;34.40;27.15;;;;;;;10.03;60.89;101108.75;5029853;28;20506;-83
2022/03/04 09:03:26;;;;;;;34.05;27.00;;;;;;;9.01;60.34;100940.84;5012744;28;20057;-82
2022/03/04 09:05:55;;;;;;;32.08;26.27;;;;;;;9.95;59.97;101093.47;5029796;28;20589;-82
2022/03/04 09:08:21;;;;;;;26.35;23.48;;;;;;;9.89;58.42;101078.00;5042242;28;20561;-82
2022/03/04 09:10:48;;;;;;;28.23;23.77;;;;;;;9.81;57.72;101062.69;5008906;28;20140;-82
2022/03/04 09:13:20;;;;;;;29.42;24.38;;;;;;;10.05;57.02;101097.06;5027662;28;20131;-82
2022/03/04 09:15:48;;;;;;;28.00;24.70;;;;;;;10.09;57.03;101102.13;5008743;28;20056;-82
2022/03/04 09:18:15;;;;;;;27.67;24.73;;;;;;;9.42;57.38;100995.09;5029213;28;20148;-82
2022/03/04 09:20:42;;;;;;;30.00;25.40;;;;;;;9.94;57.49;101082.97;5029774;28;20049;-82
2022/03/04 09:23:09;;;;;;;30.90;26.40;;;;;;;10.02;58.28;101096.44;5029925;28;20064;-82
2022/03/04 09:25:35;;;;;;;34.70;25.70;;;;;;;10.22;57.81;101108.16;5047271;28;20451;-82
2022/03/04 09:28:06;;;;;;;28.92;25.33;;;;;;;10.28;58.56;101097.06;5029572;28;20056;-82
2022/03/04 09:30:36;;;;;;;31.60;27.80;;;;;;;10.11;57.63;101063.06;5029558;28;20045;-84
2022/03/04 09:33:03;;;;;;;35.97;28.90;;;;;;;10.41;58.53;101111.06;5029711;28;20087;-83
2022/03/04 09:35:30;;;;;;;38.33;29.63;;;;;;;10.34;58.30;101098.38;5029755;28;20049;-83
2022/03/04 09:37:56;;;;;;;33.92;28.85;;;;;;;10.42;58.16;101094.16;5031839;28;20079;-81
2022/03/04 09:40:23;;;;;;;33.28;27.63;;;;;;;10.70;58.21;101105.19;5032863;28;20052;-82
2022/03/04 09:42:51;;;;;;;36.58;29.60;;;;;;;10.46;59.00;101023.06;5031254;28;20057;-81
2022/03/04 09:45:17;;;;;;;33.58;27.75;;;;;;;10.58;57.17;101055.75;5030688;28;20072;-81
2022/03/04 09:47:45;;;;;;;33.72;27.88;;;;;;;10.88;57.11;101116.97;5029674;28;20080;-82
2022/03/04 09:50:16;;;;;;;32.70;29.17;;;;;;;10.53;57.50;101057.94;5046967;28;20052;-83
2022/03/04 09:52:46;;;;;;;33.58;27.35;;;;;;;11.00;56.75;101111.63;5047185;28;20053;-80
2022/03/04 09:55:13;;;;;;;31.30;28.00;;;;;;;10.64;56.19;101050.78;5029121;28;20114;-83
2022/03/04 09:57:41;;;;;;;33.22;28.42;;;;;;;11.03;55.45;101087.47;5028888;28;20081;-83
2022/03/04 10:00:11;;;;;;;31.63;27.67;;;;;;;11.22;55.73;101090.28;5028591;28;20133;-82
2022/03/04 10:02:38;;;;;;;31.50;26.67;;;;;;;11.58;54.49;101120.03;5028707;28;20053;-83
2022/03/04 10:05:05;;;;;;;34.15;27.60;;;;;;;11.70;54.40;101112.81;5011771;28;20115;-83
2022/03/04 10:07:44;;;;;;;31.20;27.77;;;;;;;11.79;53.35;101100.56;5009343;28;20081;-83
2022/03/04 10:10:14;;;;;;;30.98;27.60;;;;;;;11.89;52.63;101105.00;5027453;28;20053;-84
2022/03/04 10:12:55;;;;;;;33.88;28.30;;;;;;;11.62;53.39;101030.19;5037244;28;20079;-82
2022/03/04 10:15:24;;;;;;;36.65;28.50;;;;;;;11.99;52.58;101070.44;5013896;28;20061;-81
2022/03/04 10:17:58;;;;;;;33.90;27.55;;;;;;;12.26;51.20;101106.22;4992103;28;20190;-84
2022/03/04 10:20:38;;;;;;;32.65;27.00;;;;;;;12.30;51.84;101083.69;4989945;28;20058;-84
2022/03/04 10:23:22;;;;;;;32.67;27.48;;;;;;;12.28;50.18;101013.78;5007387;28;20054;-83
2022/03/04 10:25:52;;;;;;;33.15;27.10;;;;;;;12.12;50.81;101004.50;4990457;28;20088;-83
2022/03/04 10:28:23;;;;;;;31.83;28.08;;;;;;;11.98;50.09;100980.94;4989881;28;20104;-82
2022/03/04 10:30:53;;;;;;;32.00;26.57;;;;;;;12.28;49.95;101009.31;4989672;28;20061;-83
2022/03/04 10:33:28;;;;;;;30.38;26.75;;;;;;;12.48;49.57;101060.78;4973632;28;20054;-84
2022/03/04 10:36:24;;;;;;;32.25;27.30;;;;;;;12.62;51.35;101062.16;4989242;28;20049;-83
2022/03/04 10:39:11;;;;;;;30.08;26.13;;;;;;;12.92;49.93;101087.88;4972756;28;20354;-83
2022/03/04 10:41:55;;;;;;;27.60;24.67;;;;;;;12.68;50.39;101027.00;4989268;28;20137;-82
2022/03/04 10:44:27;;;;;;;28.73;25.45;;;;;;;12.77;49.21;101014.69;5001417;28;20053;-83
2022/03/04 10:46:55;;;;;;;29.50;25.50;;;;;;;12.69;47.92;100977.22;4987787;28;20065;-83
2022/03/04 10:49:27;;;;;;;28.80;25.55;;;;;;;12.38;48.57;100916.16;5005591;28;20144;-84
2022/03/04 10:52:14;;;;;;;30.35;25.80;;;;;;;12.93;48.29;100974.94;4987725;28;20116;-83
2022/03/04 10:54:51;;;;;;;31.17;27.63;;;;;;;12.79;47.62;100986.03;4987151;28;20050;-86
2022/03/04 10:57:21;;;;;;;29.98;25.05;;;;;;;12.23;47.19;100885.59;4987646;28;20499;-83
2022/03/04 10:59:57;;;;;;;30.70;27.33;;;;;;;13.56;48.38;101064.25;4989411;28;20045;-84
2022/03/04 11:02:43;;;;;;;31.48;27.17;;;;;;;13.34;47.75;100999.59;4987430;28;20108;-83
2022/03/04 11:05:11;;;;;;;30.42;27.15;;;;;;;13.81;47.04;101062.75;4986420;28;20527;-83
2022/03/04 11:07:38;;;;;;;28.40;25.42;;;;;;;13.55;47.49;100990.56;4988977;28;20077;-83
2022/03/04 11:10:08;;;;;;;35.85;27.70;;;;;;;14.03;46.90;101042.84;4991669;28;20049;-81
2022/03/04 11:12:35;;;;;;;29.73;26.50;;;;;;;14.29;45.93;101062.53;4993279;28;20057;-84
2022/03/04 11:15:03;;;;;;;30.77;25.73;;;;;;;14.13;45.20;101033.00;5010557;28;20531;-83
2022/03/04 11:17:33;;;;;;;30.45;25.48;;;;;;;14.05;45.18;100984.81;4993351;28;20057;-83
2022/03/04 11:20:02;;;;;;;30.33;25.80;;;;;;;13.70;45.33;100909.03;4992938;28;20061;-82
2022/03/04 11:22:29;;;;;;;31.63;26.90;;;;;;;13.71;45.35;100886.69;4992905;28;20058;-83